createdAt,value
2022-11-09T00:00:39.014Z,14.50
2022-11-09T00:03:05.815Z,14.50
2022-11-09T00:05:32.631Z,14.50
2022-11-09T00:07:59.351Z,14.40
2022-11-09T00:10:25.911Z,14.40
2022-11-09T00:12:52.510Z,14.40
2022-11-09T00:15:19.117Z,14.50
2022-11-09T00:17:45.631Z,14.50
2022-11-09T00:20:12.592Z,14.50
2022-11-09T00:22:39.148Z,14.50
2022-11-09T00:25:06.210Z,14.60
2022-11-09T00:27:32.739Z,14.50
2022-11-09T00:29:59.271Z,14.60
2022-11-09T00:32:27.977Z,14.50
2022-11-09T00:34:54.927Z,14.50
2022-11-09T00:37:21.518Z,14.50
2022-11-09T00:39:48.105Z,14.50
2022-11-09T00:42:14.835Z,14.50
2022-11-09T00:44:41.382Z,14.40
2022-11-09T00:47:07.998Z,14.40
2022-11-09T00:49:34.556Z,14.50
2022-11-09T00:52:01.092Z,14.50
2022-11-09T00:54:27.642Z,14.50
2022-11-09T00:56:54.172Z,14.40
2022-11-09T00:59:20.762Z,14.40
2022-11-09T01:01:47.336Z,14.50
2022-11-09T01:04:13.899Z,14.50
2022-11-09T01:06:40.607Z,14.40
2022-11-09T01:09:07.187Z,14.50
2022-11-09T01:11:33.723Z,14.50
2022-11-09T01:14:00.551Z,14.50
2022-11-09T01:16:27.204Z,14.50
2022-11-09T01:18:55.526Z,14.50
2022-11-09T01:21:22.159Z,14.60
2022-11-09T01:23:48.716Z,14.60
2022-11-09T01:26:16.300Z,14.50
2022-11-09T01:28:43.089Z,14.50
2022-11-09T01:31:19.847Z,14.50
2022-11-09T01:33:46.956Z,14.50
2022-11-09T01:36:17.031Z,14.50
2022-11-09T01:38:43.932Z,14.40
2022-11-09T01:41:27.957Z,14.40
2022-11-09T01:44:08.429Z,14.30
2022-11-09T01:47:15.634Z,14.30
2022-11-09T01:49:51.315Z,14.30
2022-11-09T01:52:30.676Z,14.30
2022-11-09T01:55:02.759Z,14.30
2022-11-09T01:57:36.544Z,14.20
2022-11-09T02:00:13.195Z,14.20
2022-11-09T02:02:44.071Z,14.30
2022-11-09T02:05:15.456Z,14.30
2022-11-09T02:07:43.376Z,14.20
2022-11-09T02:10:44.836Z,14.10
2022-11-09T02:13:13.855Z,14.10
2022-11-09T02:15:45.480Z,14.10
2022-11-09T02:18:12.828Z,14.10
2022-11-09T02:20:53.789Z,14.10
2022-11-09T02:23:21.483Z,14.00
2022-11-09T02:25:53.927Z,14.00
2022-11-09T02:28:20.999Z,14.00
2022-11-09T02:30:51.521Z,14.00
2022-11-09T02:33:18.494Z,14.00
2022-11-09T02:35:45.315Z,14.00
2022-11-09T02:38:13.850Z,14.00
2022-11-09T02:40:51.911Z,14.10
2022-11-09T02:43:19.793Z,14.00
2022-11-09T02:45:46.638Z,14.00
2022-11-09T02:48:13.181Z,14.10
2022-11-09T02:50:39.762Z,14.10
2022-11-09T02:53:06.508Z,14.10
2022-11-09T02:55:33.122Z,14.10
2022-11-09T02:57:59.760Z,14.10
2022-11-09T03:00:26.359Z,14.10
2022-11-09T03:02:53.439Z,14.10
2022-11-09T03:05:19.974Z,14.10
2022-11-09T03:07:46.556Z,14.10
2022-11-09T03:10:13.095Z,14.10
2022-11-09T03:12:39.722Z,14.00
2022-11-09T03:15:08.528Z,14.00
2022-11-09T03:17:35.511Z,14.00
2022-11-09T03:20:02.142Z,14.10
2022-11-09T03:22:29.427Z,14.10
2022-11-09T03:24:56.041Z,14.00
2022-11-09T03:27:22.595Z,14.00
2022-11-09T03:29:49.226Z,14.00
2022-11-09T03:32:15.780Z,14.00
2022-11-09T03:34:42.351Z,14.10
2022-11-09T03:37:09.066Z,14.10
2022-11-09T03:39:35.618Z,14.10
2022-11-09T03:42:02.275Z,14.10
2022-11-09T03:44:28.877Z,14.10
2022-11-09T03:46:55.419Z,14.10
2022-11-09T03:49:25.312Z,14.20
2022-11-09T03:51:52.009Z,14.10
2022-11-09T03:54:18.663Z,14.10
2022-11-09T03:56:45.458Z,14.10
2022-11-09T03:59:12.002Z,14.10
2022-11-09T04:01:38.579Z,14.10
2022-11-09T04:04:05.351Z,14.10
2022-11-09T04:06:32.016Z,14.00
2022-11-09T04:08:58.558Z,14.00
2022-11-09T04:11:25.143Z,14.10
2022-11-09T04:13:51.697Z,14.10
2022-11-09T04:16:18.268Z,14.10
2022-11-09T04:18:44.794Z,14.10
2022-11-09T04:21:11.333Z,14.10
2022-11-09T04:23:37.871Z,14.10
2022-11-09T04:26:04.524Z,14.00
2022-11-09T04:28:31.119Z,14.00
2022-11-09T04:31:01.088Z,14.00
2022-11-09T04:33:28.002Z,14.10
2022-11-09T04:35:54.694Z,14.00
2022-11-09T04:38:21.524Z,14.00
2022-11-09T04:40:48.074Z,14.10
2022-11-09T04:43:15.901Z,14.10
2022-11-09T04:45:42.748Z,14.00
2022-11-09T04:48:11.687Z,14.10
2022-11-09T04:50:39.290Z,14.00
2022-11-09T04:53:14.036Z,14.00
2022-11-09T04:55:41.277Z,13.90
2022-11-09T04:58:07.875Z,13.90
2022-11-09T05:00:35.067Z,13.90
2022-11-09T05:03:03.987Z,13.90
2022-11-09T05:05:32.424Z,13.90
2022-11-09T05:07:58.940Z,13.90
2022-11-09T05:10:25.590Z,13.90
2022-11-09T05:13:04.841Z,14.00
2022-11-09T05:15:31.882Z,13.90
2022-11-09T05:17:58.874Z,14.00
2022-11-09T05:20:25.470Z,13.90
2022-11-09T05:23:10.634Z,14.00
2022-11-09T05:25:37.256Z,14.00
2022-11-09T05:28:04.015Z,14.00
2022-11-09T05:30:30.571Z,14.00
2022-11-09T05:32:57.316Z,14.00
2022-11-09T05:35:23.937Z,14.00
2022-11-09T05:37:51.088Z,14.10
2022-11-09T05:40:19.130Z,14.10
2022-11-09T05:42:49.079Z,14.10
2022-11-09T05:48:04.867Z,14.30
2022-11-09T05:50:31.492Z,14.30
2022-11-09T05:53:01.973Z,14.20
2022-11-09T05:55:28.594Z,14.20
2022-11-09T05:57:55.911Z,14.10
2022-11-09T06:00:22.910Z,14.00
2022-11-09T06:02:49.788Z,14.00
2022-11-09T06:05:16.462Z,14.00
2022-11-09T06:07:44.957Z,14.00
2022-11-09T06:10:12.028Z,14.00
2022-11-09T06:12:38.536Z,14.00
2022-11-09T06:15:05.629Z,14.00
2022-11-09T06:17:32.206Z,14.00
2022-11-09T06:19:58.762Z,14.00
2022-11-09T06:22:25.317Z,14.00
2022-11-09T06:24:52.203Z,14.00
2022-11-09T06:27:18.755Z,14.10
2022-11-09T06:29:45.338Z,14.10
2022-11-09T06:32:11.903Z,14.00
2022-11-09T06:34:38.450Z,14.10
2022-11-09T06:37:05.032Z,14.10
2022-11-09T06:39:31.600Z,14.10
2022-11-09T06:41:58.192Z,14.20
2022-11-09T06:44:24.760Z,14.10
2022-11-09T06:46:51.312Z,14.00
2022-11-09T06:49:17.877Z,14.00
2022-11-09T06:51:44.463Z,14.10
2022-11-09T06:54:11.023Z,14.10
2022-11-09T06:56:37.596Z,14.10
2022-11-09T06:59:04.144Z,14.10
2022-11-09T07:01:30.796Z,14.20
2022-11-09T07:03:57.400Z,14.20
2022-11-09T07:06:24.181Z,14.20
2022-11-09T07:08:54.392Z,14.10
2022-11-09T07:11:20.958Z,14.10
2022-11-09T07:13:52.246Z,14.10
2022-11-09T07:16:21.424Z,14.00
2022-11-09T07:18:48.003Z,14.00
2022-11-09T07:21:14.806Z,14.00
2022-11-09T07:23:41.928Z,14.00
2022-11-09T07:26:08.932Z,14.00
2022-11-09T07:28:35.934Z,14.00
2022-11-09T07:31:02.564Z,14.00
2022-11-09T07:33:30.592Z,14.00
2022-11-09T07:36:01.374Z,14.00
2022-11-09T07:38:31.787Z,14.00
2022-11-09T07:41:00.299Z,14.10
2022-11-09T07:43:27.596Z,14.10
2022-11-09T07:45:54.279Z,14.00
2022-11-09T07:48:21.363Z,14.00
2022-11-09T07:50:47.896Z,14.00
2022-11-09T07:53:16.441Z,14.00
2022-11-09T07:55:43.342Z,14.10
2022-11-09T07:58:13.093Z,14.00
2022-11-09T08:00:41.045Z,14.00
2022-11-09T08:03:08.268Z,14.00
2022-11-09T08:05:35.391Z,14.10
2022-11-09T08:08:05.672Z,14.00
2022-11-09T08:10:34.395Z,14.10
2022-11-09T08:13:03.867Z,14.10
2022-11-09T08:15:30.560Z,14.10
2022-11-09T08:18:04.411Z,14.10
2022-11-09T08:20:31.347Z,14.10
2022-11-09T08:23:03.351Z,14.00
2022-11-09T08:25:31.577Z,13.90
2022-11-09T08:27:58.403Z,14.00
2022-11-09T08:30:24.984Z,14.00
2022-11-09T08:32:52.134Z,14.00
2022-11-09T08:35:21.547Z,14.00
2022-11-09T08:37:49.799Z,14.00
2022-11-09T08:40:18.816Z,14.10
2022-11-09T08:42:45.428Z,14.10
2022-11-09T08:45:12.274Z,14.00
2022-11-09T08:47:40.127Z,14.00
2022-11-09T08:50:08.120Z,14.10
2022-11-09T08:52:35.004Z,14.20
2022-11-09T08:55:01.613Z,14.40
2022-11-09T08:57:29.478Z,14.40
2022-11-09T08:59:56.034Z,14.40
2022-11-09T09:02:22.975Z,14.50
2022-11-09T09:04:50.083Z,14.60
2022-11-09T09:07:16.835Z,14.70
2022-11-09T09:09:44.045Z,14.70
2022-11-09T09:12:10.611Z,14.90
2022-11-09T09:14:37.442Z,14.80
2022-11-09T09:17:04.399Z,15.00
2022-11-09T09:19:31.864Z,15.10
2022-11-09T09:21:59.232Z,15.00
2022-11-09T09:24:26.844Z,14.90
2022-11-09T09:26:53.514Z,15.00
2022-11-09T09:29:20.122Z,15.10
2022-11-09T09:31:47.559Z,15.00
2022-11-09T09:34:14.831Z,15.00
2022-11-09T09:36:46.457Z,15.00
2022-11-09T09:39:14.241Z,15.00
2022-11-09T09:41:42.884Z,15.10
2022-11-09T09:44:33.528Z,15.10
2022-11-09T09:47:10.279Z,15.10
2022-11-09T09:49:42.517Z,15.10
2022-11-09T09:52:25.615Z,15.10
2022-11-09T09:55:14.125Z,15.20
2022-11-09T09:57:44.039Z,15.20
2022-11-09T10:00:19.396Z,15.30
2022-11-09T10:02:46.151Z,15.20
2022-11-09T10:05:16.428Z,15.20
2022-11-09T10:08:09.424Z,15.10
2022-11-09T10:11:22.443Z,15.20
2022-11-09T10:13:48.971Z,15.10
2022-11-09T10:16:32.697Z,15.00
2022-11-09T10:19:36.893Z,15.00
2022-11-09T10:22:17.893Z,15.20
2022-11-09T10:25:32.012Z,15.40
2022-11-09T10:28:00.542Z,15.50
2022-11-09T10:30:29.750Z,15.40
2022-11-09T10:33:11.999Z,15.40
2022-11-09T10:35:45.073Z,15.40
2022-11-09T10:38:37.222Z,15.30
2022-11-09T10:41:23.820Z,15.40
2022-11-09T10:43:50.668Z,15.50
2022-11-09T10:46:17.516Z,15.50
2022-11-09T10:48:44.295Z,15.40
2022-11-09T10:51:37.787Z,15.40
2022-11-09T10:54:28.370Z,15.50
2022-11-09T10:57:12.755Z,15.30
2022-11-09T10:59:44.308Z,15.40
2022-11-09T11:02:26.176Z,15.40
2022-11-09T11:05:18.594Z,15.50
2022-11-09T11:07:47.956Z,15.50
2022-11-09T11:10:17.621Z,15.50
2022-11-09T11:12:51.043Z,15.40
2022-11-09T11:15:36.090Z,15.50
2022-11-09T11:18:05.781Z,15.40
2022-11-09T11:20:37.370Z,15.40
2022-11-09T11:23:14.096Z,15.40
2022-11-09T11:25:56.106Z,15.60
2022-11-09T11:28:52.287Z,15.50
2022-11-09T11:31:20.501Z,15.60
2022-11-09T11:33:47.463Z,15.50
2022-11-09T11:36:58.597Z,15.40
2022-11-09T11:39:29.794Z,15.60
2022-11-09T11:42:11.464Z,15.60
2022-11-09T11:48:31.714Z,15.80
2022-11-09T11:51:06.254Z,15.70
2022-11-09T11:53:51.764Z,15.60
2022-11-09T11:56:30.328Z,15.50
2022-11-09T11:59:30.675Z,15.50
2022-11-09T12:02:44.498Z,15.40
2022-11-09T12:05:35.378Z,15.40
2022-11-09T12:08:01.897Z,15.50
2022-11-09T12:11:04.408Z,15.70
2022-11-09T12:13:41.115Z,15.80
2022-11-09T12:16:18.441Z,15.80
2022-11-09T12:19:21.323Z,15.80
2022-11-09T12:22:18.199Z,15.80
2022-11-09T12:25:02.834Z,15.70
2022-11-09T12:27:38.037Z,15.70
2022-11-09T12:30:17.448Z,15.70
2022-11-09T12:32:53.018Z,15.70
2022-11-09T12:35:28.471Z,15.80
2022-11-09T12:38:02.785Z,15.80
2022-11-09T12:40:34.579Z,15.70
2022-11-09T12:43:21.594Z,15.80
2022-11-09T12:45:51.483Z,16.00
2022-11-09T12:48:23.082Z,16.10
2022-11-09T12:50:50.977Z,16.10
2022-11-09T12:53:19.763Z,16.00
2022-11-09T12:55:59.890Z,15.90
2022-11-09T12:58:31.771Z,15.90
2022-11-09T13:01:01.556Z,15.80
2022-11-09T13:03:31.745Z,15.80
2022-11-09T13:06:24.583Z,15.90
2022-11-09T13:09:07.601Z,16.10
2022-11-09T13:11:45.991Z,16.20
2022-11-09T13:14:30.214Z,16.20
2022-11-09T13:16:59.408Z,16.10
2022-11-09T13:19:35.113Z,16.30
2022-11-09T13:22:06.178Z,16.40
2022-11-09T13:24:35.401Z,16.50
2022-11-09T13:27:05.120Z,16.60
2022-11-09T13:29:40.771Z,16.40
2022-11-09T13:32:13.772Z,16.30
2022-11-09T13:34:56.870Z,16.30
2022-11-09T13:37:41.495Z,16.30
2022-11-09T13:40:32.847Z,16.20
2022-11-09T13:43:19.538Z,16.20
2022-11-09T13:45:52.567Z,16.10
2022-11-09T13:48:40.008Z,16.00
2022-11-09T13:51:19.695Z,16.00
2022-11-09T13:53:58.291Z,16.00
2022-11-09T13:56:37.707Z,15.90
2022-11-09T13:59:11.416Z,15.80
2022-11-09T14:01:54.710Z,15.80
2022-11-09T14:04:31.432Z,15.90
2022-11-09T14:07:07.226Z,16.00
2022-11-09T14:09:48.419Z,16.10
2022-11-09T14:12:42.244Z,16.30
2022-11-09T14:15:38.167Z,16.30
2022-11-09T14:18:30.560Z,16.20
2022-11-09T14:21:24.501Z,16.30
2022-11-09T14:23:51.338Z,16.40
2022-11-09T14:26:24.293Z,16.50
2022-11-09T14:28:51.035Z,16.40
2022-11-09T14:31:29.463Z,16.10
2022-11-09T14:34:01.443Z,16.00
2022-11-09T14:36:33.459Z,15.90
2022-11-09T14:39:03.117Z,15.90
2022-11-09T14:41:30.273Z,15.70
2022-11-09T14:43:58.885Z,15.70
2022-11-09T14:46:28.030Z,15.80
2022-11-09T14:49:01.916Z,15.80
2022-11-09T14:51:38.782Z,15.80
2022-11-09T14:54:18.398Z,15.80
2022-11-09T14:56:46.263Z,15.80
2022-11-09T14:59:16.061Z,15.80
2022-11-09T15:01:59.255Z,15.70
2022-11-09T15:04:28.744Z,15.80
2022-11-09T15:07:02.994Z,15.80
2022-11-09T15:09:34.752Z,15.70
2022-11-09T15:12:02.348Z,15.80
2022-11-09T15:14:34.375Z,15.80
2022-11-09T15:17:07.997Z,15.80
2022-11-09T15:19:39.213Z,15.70
2022-11-09T15:22:06.030Z,15.60
2022-11-09T15:24:47.509Z,15.60
2022-11-09T15:27:35.419Z,15.60
2022-11-09T15:30:03.819Z,15.50
2022-11-09T15:32:37.765Z,15.40
2022-11-09T15:35:15.959Z,15.50
2022-11-09T15:37:51.036Z,15.50
2022-11-09T15:40:21.526Z,15.50
2022-11-09T15:42:48.244Z,15.60
2022-11-09T15:45:17.370Z,15.60
2022-11-09T15:47:53.587Z,15.60
2022-11-09T15:50:24.127Z,15.50
2022-11-09T15:52:51.780Z,15.60
2022-11-09T15:55:22.251Z,15.50
2022-11-09T15:57:50.538Z,15.50
2022-11-09T16:00:20.882Z,15.40
2022-11-09T16:02:48.117Z,15.30
2022-11-09T16:05:15.664Z,15.30
2022-11-09T16:07:53.094Z,15.30
2022-11-09T16:10:23.093Z,15.30
2022-11-09T16:12:53.946Z,15.20
2022-11-09T16:15:20.926Z,15.30
2022-11-09T16:17:49.571Z,15.20
2022-11-09T16:20:20.517Z,15.10
2022-11-09T16:22:47.362Z,15.10
2022-11-09T16:25:14.389Z,15.10
2022-11-09T16:27:50.495Z,15.10
2022-11-09T16:30:19.176Z,15.20
2022-11-09T16:32:46.099Z,15.10
2022-11-09T16:35:26.574Z,15.00
2022-11-09T16:37:55.413Z,14.90
2022-11-09T16:40:22.812Z,14.90
2022-11-09T16:42:51.148Z,14.90
2022-11-09T16:45:17.896Z,14.90
2022-11-09T16:47:49.180Z,14.70
2022-11-09T16:50:16.525Z,14.50
2022-11-09T16:52:43.250Z,14.50
2022-11-09T16:55:10.581Z,14.40
2022-11-09T16:57:37.523Z,14.30
2022-11-09T17:00:06.552Z,14.20
2022-11-09T17:02:33.773Z,14.20
2022-11-09T17:05:00.340Z,14.20
2022-11-09T17:07:27.429Z,14.30
2022-11-09T17:09:53.964Z,14.30
2022-11-09T17:12:20.552Z,14.30
2022-11-09T17:14:47.073Z,14.30
2022-11-09T17:17:17.032Z,14.30
2022-11-09T17:19:47.908Z,14.20
2022-11-09T17:22:14.685Z,14.10
2022-11-09T17:24:41.305Z,14.10
2022-11-09T17:27:09.535Z,14.10
2022-11-09T17:29:39.581Z,14.00
2022-11-09T17:32:08.132Z,14.10
2022-11-09T17:34:34.811Z,14.00
2022-11-09T17:37:04.692Z,14.00
2022-11-09T17:39:32.149Z,14.00
2022-11-09T17:41:58.870Z,14.00
2022-11-09T17:44:25.399Z,14.00
2022-11-09T17:46:52.259Z,13.80
2022-11-09T17:49:18.819Z,13.80
2022-11-09T17:51:45.417Z,13.80
2022-11-09T17:54:12.208Z,13.70
2022-11-09T17:56:38.988Z,13.50
2022-11-09T17:59:05.661Z,13.30
2022-11-09T18:01:38.045Z,13.30
2022-11-09T18:04:07.343Z,13.10
2022-11-09T18:06:34.539Z,13.20
2022-11-09T18:09:39.262Z,13.10
2022-11-09T18:11:48.331Z,13.10
2022-11-09T18:14:15.861Z,12.90
2022-11-09T18:16:42.400Z,12.80
2022-11-09T18:19:08.948Z,12.80
2022-11-09T18:21:35.531Z,12.90
2022-11-09T18:24:02.256Z,12.90
2022-11-09T18:26:29.102Z,12.90
2022-11-09T18:28:56.739Z,12.90
2022-11-09T18:31:23.539Z,12.80
2022-11-09T18:33:50.351Z,12.80
2022-11-09T18:36:19.237Z,12.80
2022-11-09T18:38:45.845Z,12.70
2022-11-09T18:41:18.032Z,12.70
2022-11-09T18:43:45.590Z,12.70
2022-11-09T18:46:14.748Z,12.80
2022-11-09T18:48:41.943Z,12.70
2022-11-09T18:51:09.859Z,12.70
2022-11-09T18:53:42.256Z,12.80
2022-11-09T18:56:18.097Z,12.80
2022-11-09T18:58:48.809Z,12.70
2022-11-09T19:01:16.117Z,12.70
2022-11-09T19:03:42.943Z,12.70
2022-11-09T19:06:13.819Z,12.70
2022-11-09T19:08:59.251Z,12.70
2022-11-09T19:11:26.107Z,12.60
2022-11-09T19:13:53.798Z,12.60
2022-11-09T19:16:20.485Z,12.70
2022-11-09T19:18:47.094Z,12.60
2022-11-09T19:21:36.144Z,12.60
2022-11-09T19:24:03.445Z,12.60
2022-11-09T19:26:30.060Z,12.60
2022-11-09T19:28:56.654Z,12.60
2022-11-09T19:31:24.566Z,12.60
2022-11-09T19:33:51.688Z,12.60
2022-11-09T19:36:34.586Z,12.50
2022-11-09T19:39:01.575Z,12.50
2022-11-09T19:41:29.223Z,12.40
2022-11-09T19:43:58.740Z,12.40
2022-11-09T19:46:27.083Z,12.40
2022-11-09T19:48:53.679Z,12.40
2022-11-09T19:51:20.418Z,12.40
2022-11-09T19:53:55.037Z,12.40
2022-11-09T19:56:23.134Z,12.40
2022-11-09T19:58:55.098Z,12.30
2022-11-09T20:01:22.949Z,12.30
2022-11-09T20:03:55.048Z,12.30
2022-11-09T20:06:23.232Z,12.40
2022-11-09T20:08:51.175Z,12.40
2022-11-09T20:11:38.464Z,12.40
2022-11-09T20:14:05.871Z,12.40
2022-11-09T20:16:33.516Z,12.30
2022-11-09T20:19:01.124Z,12.40
2022-11-09T20:21:27.896Z,12.30
2022-11-09T20:23:54.614Z,12.40
2022-11-09T20:26:21.492Z,12.40
2022-11-09T20:28:48.043Z,12.40
2022-11-09T20:31:17.547Z,12.40
2022-11-09T20:33:44.260Z,12.40
2022-11-09T20:36:10.954Z,12.40
2022-11-09T20:38:37.866Z,12.40
2022-11-09T20:41:06.324Z,12.40
2022-11-09T20:43:33.335Z,12.40
2022-11-09T20:46:08.948Z,12.40
2022-11-09T20:51:23.034Z,12.40
2022-11-09T20:53:50.849Z,12.40
2022-11-09T20:56:18.752Z,12.40
2022-11-09T20:58:45.337Z,12.30
2022-11-09T21:01:17.720Z,12.20
2022-11-09T21:03:45.297Z,12.20
2022-11-09T21:06:13.004Z,12.20
2022-11-09T21:08:40.064Z,12.10
2022-11-09T21:11:07.815Z,12.10
2022-11-09T21:13:34.388Z,12.30
2022-11-09T21:16:09.901Z,12.30
2022-11-09T21:18:36.500Z,12.30
2022-11-09T21:21:11.682Z,12.20
2022-11-09T21:23:57.354Z,12.20
2022-11-09T21:26:43.372Z,12.10
2022-11-09T21:29:31.405Z,12.10
2022-11-09T21:31:58.636Z,12.10
2022-11-09T21:34:25.597Z,12.10
2022-11-09T21:36:52.208Z,12.00
2022-11-09T21:39:18.962Z,12.00
2022-11-09T21:41:45.517Z,12.10
2022-11-09T21:44:12.782Z,12.10
2022-11-09T21:46:41.158Z,12.10
2022-11-09T21:49:09.137Z,12.10
2022-11-09T21:51:37.262Z,12.10
2022-11-09T21:54:05.343Z,12.10
2022-11-09T21:56:32.256Z,12.10
2022-11-09T21:58:59.045Z,12.10
2022-11-09T22:01:26.043Z,12.10
2022-11-09T22:03:52.823Z,12.10
2022-11-09T22:06:20.443Z,12.20
2022-11-09T22:08:47.386Z,12.10
2022-11-09T22:11:17.399Z,12.10
2022-11-09T22:14:02.950Z,12.20
2022-11-09T22:16:33.950Z,12.10
2022-11-09T22:19:21.982Z,12.20
2022-11-09T22:21:48.598Z,12.10
2022-11-09T22:24:15.150Z,12.00
2022-11-09T22:26:41.705Z,12.00
2022-11-09T22:29:08.671Z,12.00
2022-11-09T22:31:35.248Z,12.10
2022-11-09T22:34:01.830Z,12.00
2022-11-09T22:36:28.564Z,12.00
2022-11-09T22:38:56.064Z,11.90
2022-11-09T22:41:24.439Z,11.90
2022-11-09T22:43:52.431Z,12.00
2022-11-09T22:46:19.294Z,12.10
2022-11-09T22:48:45.938Z,12.00
2022-11-09T22:51:13.933Z,12.00
2022-11-09T22:53:40.534Z,12.10
2022-11-09T22:56:08.919Z,12.10
2022-11-09T22:58:35.702Z,12.10
2022-11-09T23:01:06.939Z,12.10
2022-11-09T23:03:34.827Z,12.10
2022-11-09T23:06:07.261Z,12.00
2022-11-09T23:08:39.295Z,12.00
2022-11-09T23:11:09.740Z,12.00
2022-11-09T23:13:36.775Z,12.00
2022-11-09T23:16:06.427Z,12.00
2022-11-09T23:18:52.130Z,12.00
2022-11-09T23:21:19.759Z,12.00
2022-11-09T23:23:46.837Z,12.00
2022-11-09T23:26:13.394Z,11.90
2022-11-09T23:28:40.002Z,11.90
2022-11-09T23:31:12.316Z,11.90
2022-11-09T23:33:39.527Z,11.90
2022-11-09T23:36:07.945Z,11.90
2022-11-09T23:38:36.743Z,11.90
2022-11-09T23:41:04.632Z,11.90
2022-11-09T23:43:31.364Z,11.90
2022-11-09T23:46:03.061Z,11.80
2022-11-09T23:48:29.669Z,11.80
2022-11-09T23:51:00.936Z,11.80
2022-11-09T23:53:29.005Z,11.80
2022-11-09T23:56:03.405Z,11.80
2022-11-09T23:58:30.190Z,11.80
